In Rescue
 
Open Full Screen Window  High Contrast Mode
Wind Gusting 00 knots
03
November 25, 2020 5:40 AM EST
Present Weather: Mist
Weather Information
Wind Direction
  160 °
Wind Speed
  03 kt (3 mph)
Wind Gust
  00 kt (0 mph)
Altimeter
29.90 in
Visibility
3 SM
Temperature
05° C
41° F
Dewpoint
04° C
39° F
Humidity
93%
1hr Rain Fall
00.00 in.
24hr Rain Fall
00.09 in.
Sky Condition
Overcast @ 1,000 ft
Scattered @ 700 ft
MVFR

METAR KRMY 251040Z AUTO 16003KT 3SM BR SCT007 OVC010 05/04 A2990 RMK AO2 T00480042

FAA Disclaimer: The data displayed is for advisory purposes only and is not to be used for flight planning or operations.